ADDS METAR Data INFO
IDs: Format: Raw Decoded Include TAF

Data at: 1527 UTC 18 Jun 2018

KCHA 181453Z 00000KT 10SM FEW050 28/19 A3018 RMK AO2 SLP213 T02780194 50002
KCHA 181353Z 00000KT 10SM SCT050 26/21 A3019 RMK AO2 SLP217 T02560206
KCHA 181253Z 00000KT 10SM SCT050 24/20 A3019 RMK AO2 SLP217 T02390200
KCHA 181153Z 00000KT 10SM SCT050 22/19 A3018 RMK AO2 SLP211 70030 T02220194 10222 20206 51011
KCHA 181053Z 00000KT 10SM SCT050 SCT250 21/19 A3017 RMK AO2 SLP211 T02060189
KCHA 180953Z 00000KT 10SM CLR 21/19 A3016 RMK AO2 SLP207 T02060189
KCHA 180853Z AUTO 00000KT 10SM CLR 21/19 A3014 RMK AO2 SLP198 T02060189 55000
KCHA 180753Z AUTO 00000KT 10SM CLR 21/19 A3014 RMK AO2 SLP195 T02060194
KCHA 180653Z AUTO 19003KT 10SM CLR 21/19 A3014 RMK AO2 SLP197 T02110189
KCHA 180553Z AUTO 00000KT 10SM CLR 21/19 A3015 RMK AO2 SLP200 60000 T02110194 10239 20211 58002
KCHA 180453Z AUTO 00000KT 10SM CLR 22/19 A3016 RMK AO2 SLP202 T02220194 403440211
KCHA 180353Z 00000KT 10SM FEW070 SCT150 SCT250 22/19 A3016 RMK AO2 SLP205 LAST T02220194
KCHA 180253Z 16003KT 10SM SCT055 SCT070 SCT150 BKN250 23/20 A3015 RMK AO2 SLP202 60000 T02280200 51014
KCHA 180153Z 18004KT 10SM SCT055 SCT070 BKN150 BKN250 23/19 A3013 RMK AO2 SLP196 T02280194
KCHA 180053Z 14004KT 10SM SCT055 SCT070 BKN150 BKN250 23/21 A3013 RMK AO2 RAE00 TSE25 SLP197 TS DSIPTD P0000 T02330206
KCHA 180026Z 00000KT 10SM SCT070 SCT150 BKN250 23/21 A3012 RMK AO2 RAE00 TSE25 TS DSIPTD P0000 T02330211
KCHA 172353Z 24007KT 10SM -TSRA FEW030 SCT055CB BKN070 BKN150 BKN250 24/21 A3011 RMK AO2 LTG DSNT N AND W RAB2259 SLP189 OCNL LTGIC W TS W MOV NW P0001 60030 T02390211 10344 20239 50013
KCHA 172253Z 13009KT 10SM TS FEW025 SCT055CB BKN070 BKN150 BKN250 25/21 A3014 RMK AO2 WSHFT 2146 LTG DSNT N-E RAE01B07E31 SLP198 OCNL LTGIC NW TS NW MOV NW CB DSNT E P0001 T02500211
KCHA 172206Z 18005KT 10SM R02/5000VP6000FT TS FEW025 BKN055CB BKN080 BKN150 BKN250 26/22 A3010
KCHA 172153Z 18012G17KT 10SM -TSRA FEW025 BKN055CB BKN080 BKN150 BKN250 27/22 A3010 RMK AO2 LTG DSNT E AND S RAB28 TSB00E15B17 SLP184 OCNL LTGIC S TS S MOV SE CB DSNT E AND S P0027 T02720217
KCHA 172103Z 26003KT 10SM TS SCT055CB BKN080 BKN150 BKN250 34/19 A3007 RMK AO2 LTG DSNT N AND S TSB00 OCNL LTGIC E TS E STNRY CB DSNT N AND S T03440189
KCHA 172053Z 31003KT 10SM SCT050 BKN080 BKN150 BKN250 34/18 A3007 RMK AO2 LTG DSNT N AND NE AND S TSE10 SLP174 MOD CU ALQDS CB DSNT N AND NE AND S 60001 T03390183 58016
KCHA 172011Z VRB03KT 10SM SCT045 SCT080 BKN150 BKN250 34/19 A3009 RMK AO2 LTG DSNT ALQDS TSE10 TS DSIPTD CB DSNT ALQDS T03390189
KCHA 171953Z COR 35003KT 10SM TS SCT045CB SCT080 BKN150 BKN250 34/19 A3009 RMK AO2 LTG DSNT SW AND NW RAE23 TSB52 SLP180 OCNL LTGIC W TS W STNRY CB DSNT SW AND NW P0000 T03440194
KCHA 171853Z COR 26005KT 10SM R02/4000VP6000FT -RA SCT043 SCT050TCU BKN070 BKN150 BKN250 31/22 A3011 RMK AO2 LTG DSNT NW RAB45 SLP185 TCU OHD CB DSNT NW P0001 T03060217
KCHA 171753Z 19004KT 10SM SCT041 BKN050 BKN250 32/21 A3012 RMK AO2 LTG DSNT E SLP190 CB DSNT E AND SE T03170206 10328 20239 58015
KCHA 171653Z 17006KT 10SM SCT037 SCT050 32/21 A3013 RMK AO2 SLP195 T03170211
KCHA 171553Z 00000KT 10SM SCT042 31/21 A3015 RMK AO2 SLP201 T03060206
KCHA 171453Z 00000KT 10SM FEW039 29/20 A3016 RMK AO2 SLP205 T02890200 50008
KCHA 171353Z 00000KT 10SM CLR 27/19 A3017 RMK AO2 SLP208 T02720194
KCHA 171253Z 00000KT 10SM CLR 25/19 A3016 RMK AO2 SLP204 T02500189
KCHA 171153Z 00000KT 10SM CLR 23/18 A3014 RMK AO2 SLP197 T02330183 10244 20211 51021
KCHA 171053Z 13003KT 10SM SCT250 22/18 A3013 RMK AO2 SLP192 T02170183
KCHA 170953Z 21003KT 10SM SCT250 22/18 A3010 RMK AO2 SLP182 T02220183
KCHA 170853Z AUTO 00000KT 10SM CLR 23/18 A3008 RMK AO2 SLP175 T02280178 56011
KCHA 170753Z AUTO 00000KT 10SM CLR 22/18 A3008 RMK AO2 SLP175 T02220183
KCHA 170653Z AUTO 22003KT 10SM CLR 24/18 A3010 RMK AO2 SLP184 T02390178
KCHA 170553Z AUTO 22003KT 10SM CLR 24/18 A3011 RMK AO2 SLP186 T02440183 10322 20244 53011
KCHA 170453Z AUTO 21004KT 10SM CLR 25/18 A3010 RMK AO2 SLP182 T02500183 403500211
KCHA 170353Z 20005KT 10SM FEW055 FEW140 FEW250 26/18 A3009 RMK AO2 SLP178 LAST T02610178